Time;durP1;ratioP1;P1;durP2;ratioP2;P2;SDS_P1;SDS_P2;PMS_P1;PMS_P2;Temp;Humidity;BMP_temperature;BMP_pressure;BME280_temperature;BME280_humidity;BME280_pressure;Samples;Min_cycle;Max_cycle;Signal;HPM_P1;HPM_P2
2022/01/27 00:03:17;;;;;;;65.70;26.90;;;2.50;99.90;;;;;;2058126;28;20122;-72
2022/01/27 00:04:24;;;;;;;62.08;25.13;;;2.50;99.90;;;;;;2079830;28;20071;-72
2022/01/27 00:05:27;;;;;;;70.28;26.55;;;2.40;99.90;;;;;;2072359;28;20022;-71
2022/01/27 00:06:30;;;;;;;65.55;26.60;;;2.50;99.90;;;;;;2080041;28;20022;-73
2022/01/27 00:07:34;;;;;;;63.70;27.27;;;2.50;99.90;;;;;;2081803;28;20029;-71
2022/01/27 00:08:47;;;;;;;66.90;26.92;;;2.40;99.90;;;;;;2076830;28;20104;-72
2022/01/27 00:10:04;;;;;;;66.97;27.80;;;2.40;99.90;;;;;;2073348;28;20059;-72
2022/01/27 00:11:15;;;;;;;65.75;27.30;;;2.40;99.90;;;;;;2076559;28;20125;-72
2022/01/27 00:12:18;;;;;;;65.55;26.58;;;2.40;99.90;;;;;;2082389;28;20653;-72
2022/01/27 00:13:28;;;;;;;62.05;26.17;;;2.40;99.90;;;;;;2082077;28;20096;-72
2022/01/27 00:14:29;;;;;;;60.28;26.10;;;2.50;99.90;;;;;;2076902;28;20029;-72
2022/01/27 00:15:33;;;;;;;62.15;26.55;;;2.40;99.90;;;;;;2080572;28;20042;-72
2022/01/27 00:16:40;;;;;;;65.38;26.88;;;2.40;99.90;;;;;;2077121;28;20493;-72
2022/01/27 00:17:45;;;;;;;64.55;27.45;;;2.40;99.90;;;;;;2072575;28;20032;-72
2022/01/27 00:18:48;;;;;;;64.07;26.77;;;2.40;99.90;;;;;;2081168;28;20021;-72
2022/01/27 00:19:50;;;;;;;61.80;26.42;;;2.40;99.90;;;;;;2080872;28;20056;-72
2022/01/27 00:20:51;;;;;;;61.38;26.73;;;2.40;99.90;;;;;;2065484;28;20035;-73
2022/01/27 00:21:52;;;;;;;64.78;26.42;;;2.40;99.90;;;;;;2073166;28;20033;-72
2022/01/27 00:22:53;;;;;;;62.33;25.95;;;2.40;99.90;;;;;;2079635;28;20497;-73
2022/01/27 00:23:54;;;;;;;61.95;26.80;;;2.40;99.90;;;;;;2065311;28;20022;-73
2022/01/27 00:24:55;;;;;;;61.83;26.23;;;2.40;99.90;;;;;;2074851;28;20048;-75
2022/01/27 00:25:56;;;;;;;61.20;26.60;;;2.40;99.90;;;;;;2065435;28;20588;-72
2022/01/27 00:26:58;;;;;;;63.28;26.60;;;2.40;99.90;;;;;;2073577;28;20109;-72
2022/01/27 00:27:59;;;;;;;66.57;27.42;;;2.40;99.90;;;;;;2082511;28;20021;-72
2022/01/27 00:29:01;;;;;;;64.03;27.42;;;2.40;99.90;;;;;;2081743;28;20053;-73
2022/01/27 00:30:04;;;;;;;66.78;28.05;;;2.40;99.90;;;;;;2085842;28;20021;-72
2022/01/27 00:31:05;;;;;;;66.35;27.85;;;2.40;99.90;;;;;;2075112;28;20105;-72
2022/01/27 00:32:06;;;;;;;61.33;26.98;;;2.40;99.90;;;;;;2081744;28;20104;-72
2022/01/27 00:33:08;;;;;;;63.63;26.85;;;2.40;99.90;;;;;;2081806;28;20064;-72
2022/01/27 00:34:08;;;;;;;59.97;26.75;;;2.40;99.90;;;;;;2083432;28;20117;-72
2022/01/27 00:35:09;;;;;;;65.68;27.88;;;2.40;99.90;;;;;;2073226;28;20045;-72
2022/01/27 00:36:11;;;;;;;67.07;27.48;;;2.40;99.90;;;;;;2073403;28;20022;-72
2022/01/27 00:37:11;;;;;;;66.60;27.60;;;2.40;99.90;;;;;;2074320;28;20073;-73
2022/01/27 00:38:12;;;;;;;66.10;27.05;;;2.40;99.90;;;;;;2077466;28;20076;-71
2022/01/27 00:39:13;;;;;;;64.05;27.00;;;2.40;99.90;;;;;;2082842;28;20147;-72
2022/01/27 00:40:14;;;;;;;61.50;26.38;;;2.40;99.90;;;;;;2078870;28;20478;-73
2022/01/27 00:41:19;;;;;;;66.38;27.83;;;2.40;99.90;;;;;;2082285;28;20030;-72
2022/01/27 00:42:20;;;;;;;67.20;27.90;;;2.50;99.90;;;;;;2081645;28;20026;-72
2022/01/27 00:43:21;;;;;;;67.47;27.42;;;2.50;99.90;;;;;;2074692;28;20026;-72
2022/01/27 00:44:22;;;;;;;68.35;28.63;;;2.50;99.90;;;;;;2077250;28;20029;-72
2022/01/27 00:45:24;;;;;;;65.50;27.70;;;2.50;99.90;;;;;;2081257;28;20721;-73
2022/01/27 00:46:25;;;;;;;66.93;27.20;;;2.50;99.90;;;;;;2078966;28;20033;-73
2022/01/27 00:47:26;;;;;;;60.83;26.77;;;2.50;99.90;;;;;;2081668;28;20039;-73
2022/01/27 00:48:27;;;;;;;69.97;27.63;;;2.50;99.90;;;;;;2073327;28;20021;-72
2022/01/27 00:49:27;;;;;;;65.13;27.60;;;2.50;99.90;;;;;;2066552;28;20465;-73
2022/01/27 00:50:29;;;;;;;68.25;28.13;;;2.50;99.90;;;;;;2073209;28;20030;-73
2022/01/27 00:51:35;;;;;;;68.18;27.73;;;2.50;99.90;;;;;;2077333;28;20043;-72
2022/01/27 00:52:58;;;;;;;67.45;27.85;;;2.50;99.90;;;;;;2075966;28;20060;-71
2022/01/27 00:54:06;;;;;;;68.80;27.33;;;2.50;99.90;;;;;;2081185;28;20051;-72
2022/01/27 00:55:08;;;;;;;63.95;26.27;;;2.50;99.90;;;;;;2075275;28;20021;-72
2022/01/27 00:56:48;;;;;;;69.03;28.40;;;2.50;99.90;;;;;;2081465;28;20080;-72
2022/01/27 01:00:12;;;;;;;76.50;28.67;;;2.50;99.90;;;;;;2078675;28;20037;-72
2022/01/27 01:01:16;;;;;;;74.05;28.13;;;2.50;99.90;;;;;;2083007;28;20060;-72
2022/01/27 01:03:29;;;;;;;71.60;28.20;;;2.50;99.90;;;;;;2073357;28;20029;-72
2022/01/27 01:04:34;;;;;;;74.25;29.17;;;2.50;99.90;;;;;;2082542;28;20033;-73
2022/01/27 01:06:55;;;;;;;72.15;28.27;;;2.50;99.90;;;;;;2082730;28;20022;-72
2022/01/27 01:08:04;;;;;;;72.63;29.05;;;2.50;99.90;;;;;;2072896;28;20029;-73
2022/01/27 01:15:26;;;;;;;69.22;27.85;;;2.50;99.90;;;;;;2075222;28;20181;-73
2022/01/27 01:17:41;;;;;;;69.70;27.98;;;2.50;99.90;;;;;;2077072;28;20025;-74
2022/01/27 01:18:55;;;;;;;67.95;27.20;;;2.50;99.90;;;;;;2071026;28;20521;-74
2022/01/27 01:33:45;;;;;;;62.55;26.73;;;2.40;99.90;;;;;;2080249;28;20030;-72
2022/01/27 01:34:48;;;;;;;63.55;26.80;;;2.40;99.90;;;;;;2074055;28;20030;-71
2022/01/27 01:35:52;;;;;;;63.70;27.52;;;2.40;99.90;;;;;;2073244;28;20088;-73
2022/01/27 01:37:57;;;;;;;64.95;26.05;;;2.40;99.90;;;;;;2081248;28;20333;-72
2022/01/27 01:38:58;;;;;;;59.70;25.38;;;2.40;99.90;;;;;;2082581;28;20041;-72
2022/01/27 01:39:59;;;;;;;63.17;26.27;;;2.40;99.90;;;;;;2074705;28;20128;-72
2022/01/27 01:41:00;;;;;;;61.80;25.92;;;2.40;99.90;;;;;;2073900;28;20061;-73
2022/01/27 01:42:04;;;;;;;64.40;25.85;;;2.50;99.90;;;;;;2078019;28;20409;-73
2022/01/27 01:43:04;;;;;;;58.60;24.92;;;2.40;99.90;;;;;;2082876;28;20034;-73
2022/01/27 01:44:06;;;;;;;59.50;25.27;;;2.50;99.90;;;;;;2081592;28;20762;-73
2022/01/27 01:45:13;;;;;;;59.45;25.15;;;2.40;99.90;;;;;;2072809;28;20034;-72
2022/01/27 01:46:13;;;;;;;61.70;25.63;;;2.40;99.90;;;;;;2077524;28;20064;-72
2022/01/27 01:47:15;;;;;;;58.70;25.27;;;2.40;99.90;;;;;;2082076;28;20075;-73
2022/01/27 01:48:17;;;;;;;57.70;25.67;;;2.50;99.90;;;;;;2081442;28;20045;-72
2022/01/27 01:49:18;;;;;;;58.20;25.00;;;2.50;99.90;;;;;;2074383;28;20026;-72
2022/01/27 01:50:19;;;;;;;57.08;24.70;;;2.40;99.90;;;;;;2065073;28;20026;-72
2022/01/27 01:51:26;;;;;;;60.95;26.25;;;2.50;99.90;;;;;;2056532;28;20026;-72
2022/01/27 01:52:27;;;;;;;64.38;25.92;;;2.50;99.90;;;;;;2073560;28;20041;-72
2022/01/27 01:53:28;;;;;;;63.05;26.63;;;2.50;99.90;;;;;;2076454;28;20128;-72
2022/01/27 01:54:29;;;;;;;59.47;24.95;;;2.50;99.90;;;;;;2080924;28;20519;-72
2022/01/27 01:55:31;;;;;;;60.65;26.63;;;2.50;99.90;;;;;;2082654;28;20053;-72
2022/01/27 01:56:33;;;;;;;60.20;25.45;;;2.50;99.90;;;;;;2077461;28;20113;-72
2022/01/27 01:57:35;;;;;;;62.00;26.38;;;2.50;99.90;;;;;;2080758;28;20075;-72
2022/01/27 01:58:36;;;;;;;60.92;25.73;;;2.50;99.90;;;;;;2073968;28;20145;-72
2022/01/27 01:59:37;;;;;;;57.65;24.20;;;2.50;99.90;;;;;;2080816;28;20156;-71
2022/01/27 02:00:38;;;;;;;58.40;25.63;;;2.50;99.90;;;;;;2081417;28;20014;-72
2022/01/27 02:01:41;;;;;;;56.35;24.58;;;2.50;99.90;;;;;;2081127;28;20029;-72
2022/01/27 02:02:41;;;;;;;62.28;25.35;;;2.50;99.90;;;;;;2078492;28;20024;-72
2022/01/27 02:03:42;;;;;;;60.15;24.92;;;2.50;99.90;;;;;;2082520;28;20044;-72
2022/01/27 02:04:44;;;;;;;55.13;24.33;;;2.50;99.90;;;;;;2082461;28;20025;-72
2022/01/27 02:05:51;;;;;;;56.85;24.23;;;2.50;99.90;;;;;;2082373;28;20041;-72
2022/01/27 02:06:56;;;;;;;58.58;24.70;;;2.50;99.90;;;;;;2084807;28;20159;-72
2022/01/27 02:18:27;;;;;;;59.72;24.77;;;2.40;99.90;;;;;;2080858;28;20728;-72
2022/01/27 02:19:29;;;;;;;58.03;23.75;;;2.50;99.90;;;;;;2081762;28;20079;-72
2022/01/27 02:20:33;;;;;;;54.35;23.77;;;2.40;99.90;;;;;;2080784;28;20032;-72
2022/01/27 02:21:45;;;;;;;57.55;23.70;;;2.40;99.90;;;;;;2080276;28;20020;-72
2022/01/27 02:22:46;;;;;;;58.78;24.38;;;2.40;99.90;;;;;;2081771;28;20525;-72
2022/01/27 02:23:47;;;;;;;58.20;23.73;;;2.40;99.90;;;;;;2080770;28;20053;-73
2022/01/27 02:24:49;;;;;;;58.47;24.90;;;2.40;99.90;;;;;;2081707;28;20030;-73
2022/01/27 02:25:50;;;;;;;52.30;23.33;;;2.40;99.90;;;;;;2078827;28;20030;-73
2022/01/27 02:26:51;;;;;;;56.35;23.67;;;2.40;99.90;;;;;;2079946;28;20026;-73
2022/01/27 02:27:57;;;;;;;54.75;22.63;;;2.40;99.90;;;;;;2073507;28;20026;-71
2022/01/27 02:28:58;;;;;;;54.00;23.23;;;2.40;99.90;;;;;;2073130;28;20030;-71
2022/01/27 02:29:59;;;;;;;52.13;22.83;;;2.40;99.90;;;;;;2080798;28;20033;-71
2022/01/27 02:30:59;;;;;;;52.97;22.45;;;2.40;99.90;;;;;;2082764;28;20029;-72
2022/01/27 02:32:01;;;;;;;56.03;23.60;;;2.40;99.90;;;;;;2076573;28;20026;-71
2022/01/27 02:33:03;;;;;;;56.28;23.98;;;2.40;99.90;;;;;;2080996;28;20151;-72
2022/01/27 02:34:05;;;;;;;59.00;23.95;;;2.40;99.90;;;;;;2073899;28;20081;-71
2022/01/27 02:35:06;;;;;;;55.42;23.23;;;2.40;99.90;;;;;;2080795;28;20507;-71
2022/01/27 02:36:07;;;;;;;53.42;23.30;;;2.40;99.90;;;;;;2076891;28;20034;-73
2022/01/27 02:37:11;;;;;;;58.33;24.73;;;2.40;99.90;;;;;;2082947;28;20034;-73
2022/01/27 02:38:12;;;;;;;54.55;23.15;;;2.40;99.90;;;;;;2080539;28;20156;-73
2022/01/27 02:39:14;;;;;;;54.53;23.40;;;2.40;99.90;;;;;;2080577;28;20406;-73
2022/01/27 02:40:28;;;;;;;55.90;24.42;;;2.40;99.90;;;;;;2082777;28;20228;-72
2022/01/27 02:41:35;;;;;;;52.40;23.15;;;2.40;99.90;;;;;;2080657;28;20116;-72
2022/01/27 02:42:36;;;;;;;57.28;23.25;;;2.40;99.90;;;;;;2076732;28;20029;-72
2022/01/27 02:43:37;;;;;;;53.58;23.10;;;2.40;99.90;;;;;;2081676;28;20025;-72
2022/01/27 02:44:56;;;;;;;54.05;24.10;;;2.40;99.90;;;;;;2080592;28;20436;-72
2022/01/27 02:46:08;;;;;;;58.88;23.48;;;2.40;99.90;;;;;;2077738;28;20060;-72
2022/01/27 02:47:08;;;;;;;51.50;22.80;;;2.40;99.90;;;;;;2073170;28;20030;-73
2022/01/27 02:48:11;;;;;;;55.55;23.23;;;2.40;99.90;;;;;;2076485;28;20018;-72
2022/01/27 02:49:12;;;;;;;52.88;23.58;;;2.40;99.90;;;;;;2081782;28;20048;-72
2022/01/27 02:50:13;;;;;;;54.88;22.90;;;2.40;99.90;;;;;;2072495;28;20030;-72
2022/01/27 02:51:14;;;;;;;56.53;24.08;;;2.40;99.90;;;;;;2074349;28;20132;-72
2022/01/27 02:52:16;;;;;;;54.17;23.75;;;2.40;99.90;;;;;;2075599;28;20556;-73
2022/01/27 02:53:16;;;;;;;57.67;23.75;;;2.40;99.90;;;;;;2075231;28;20030;-73
2022/01/27 02:54:18;;;;;;;57.00;23.67;;;2.40;99.90;;;;;;2074909;28;20057;-72
2022/01/27 02:55:18;;;;;;;55.88;24.10;;;2.40;99.90;;;;;;2076204;28;20098;-71
2022/01/27 02:56:19;;;;;;;57.25;23.45;;;2.40;99.90;;;;;;2071866;28;20773;-72
2022/01/27 02:57:24;;;;;;;58.50;24.25;;;2.30;99.90;;;;;;2073016;28;20075;-72
2022/01/27 02:58:25;;;;;;;57.70;24.27;;;2.30;99.90;;;;;;2078047;28;20698;-73
2022/01/27 02:59:26;;;;;;;54.72;24.00;;;2.30;99.90;;;;;;2081174;28;20087;-73
2022/01/27 03:00:26;;;;;;;59.92;23.35;;;2.30;99.90;;;;;;2072433;28;20026;-71
2022/01/27 03:01:27;;;;;;;60.38;24.50;;;2.30;99.90;;;;;;2073586;28;20041;-73
2022/01/27 03:02:28;;;;;;;55.78;23.65;;;2.30;99.90;;;;;;2080736;28;20419;-71
2022/01/27 03:03:29;;;;;;;57.33;23.98;;;2.30;99.90;;;;;;2080867;28;20022;-71
2022/01/27 03:04:30;;;;;;;54.28;23.50;;;2.20;99.90;;;;;;2082017;28;20135;-73
2022/01/27 03:05:31;;;;;;;54.97;22.80;;;2.20;99.90;;;;;;2081050;28;20022;-73
2022/01/27 03:06:32;;;;;;;51.97;22.98;;;2.20;99.90;;;;;;2076650;28;20072;-72
2022/01/27 03:07:33;;;;;;;51.00;22.55;;;2.10;99.90;;;;;;2073716;28;20022;-72
2022/01/27 03:08:33;;;;;;;53.35;22.85;;;2.20;99.90;;;;;;2076963;28;20024;-73
2022/01/27 03:09:35;;;;;;;55.88;23.27;;;2.10;99.90;;;;;;2081210;28;20445;-73
2022/01/27 03:10:43;;;;;;;50.15;22.63;;;2.20;99.90;;;;;;2078526;28;20514;-73
2022/01/27 03:11:45;;;;;;;52.05;21.58;;;2.20;99.90;;;;;;2082208;28;20026;-73
2022/01/27 03:12:49;;;;;;;50.70;21.67;;;2.20;99.90;;;;;;2084155;28;20052;-74
2022/01/27 03:13:50;;;;;;;58.40;24.48;;;2.20;99.90;;;;;;2081115;28;20412;-73
2022/01/27 03:14:50;;;;;;;51.78;22.75;;;2.20;99.90;;;;;;2080688;28;20039;-73
2022/01/27 03:15:51;;;;;;;53.55;21.98;;;2.20;99.90;;;;;;2078757;28;20026;-73
2022/01/27 03:16:58;;;;;;;50.47;22.17;;;2.20;99.90;;;;;;2079552;28;20034;-73
2022/01/27 03:17:59;;;;;;;55.22;23.10;;;2.30;99.90;;;;;;2080105;28;20493;-74
2022/01/27 03:19:00;;;;;;;54.05;21.98;;;2.30;99.90;;;;;;2082868;28;20037;-73
2022/01/27 03:20:01;;;;;;;53.75;22.35;;;2.30;99.90;;;;;;2077324;28;20037;-72
2022/01/27 03:21:03;;;;;;;55.60;23.58;;;2.30;99.90;;;;;;2080951;28;20028;-73
2022/01/27 03:22:05;;;;;;;50.33;22.67;;;2.40;99.90;;;;;;2077852;28;20482;-73
2022/01/27 03:23:07;;;;;;;51.05;22.23;;;2.40;99.90;;;;;;2080391;28;20049;-73
2022/01/27 03:24:08;;;;;;;53.03;23.10;;;2.40;99.90;;;;;;2080186;28;20421;-74
2022/01/27 03:25:09;;;;;;;52.05;23.25;;;2.40;99.90;;;;;;2081580;28;20025;-71
2022/01/27 03:26:10;;;;;;;55.72;23.67;;;2.40;99.90;;;;;;2080041;28;20469;-74
2022/01/27 03:27:18;;;;;;;49.47;22.20;;;2.40;99.90;;;;;;2081251;28;20052;-73
2022/01/27 03:28:23;;;;;;;52.97;23.50;;;2.40;99.90;;;;;;2077871;28;20396;-73
2022/01/27 03:29:25;;;;;;;55.50;22.85;;;2.40;99.90;;;;;;2080812;28;20037;-71
2022/01/27 03:30:26;;;;;;;54.40;23.65;;;2.50;99.90;;;;;;2080966;28;20060;-73
2022/01/27 03:31:27;;;;;;;55.95;23.70;;;2.50;99.90;;;;;;2081514;28;20025;-71
2022/01/27 03:32:28;;;;;;;52.95;23.52;;;2.50;99.90;;;;;;2081318;28;20091;-73
2022/01/27 03:33:28;;;;;;;55.63;23.60;;;2.50;99.90;;;;;;2080651;28;20041;-71
2022/01/27 03:34:29;;;;;;;57.05;23.88;;;2.50;99.90;;;;;;2073306;28;20022;-72
2022/01/27 03:35:30;;;;;;;55.10;23.85;;;2.50;99.90;;;;;;2068139;28;20030;-72
2022/01/27 03:36:31;;;;;;;55.53;23.98;;;2.50;99.90;;;;;;2081010;28;20569;-72
2022/01/27 03:37:31;;;;;;;51.70;22.67;;;2.50;99.90;;;;;;2082507;28;20030;-73
2022/01/27 03:38:33;;;;;;;53.28;23.42;;;2.50;99.90;;;;;;2076678;28;20025;-73
2022/01/27 03:39:36;;;;;;;53.30;23.15;;;2.60;99.90;;;;;;2080707;28;20061;-72
2022/01/27 03:40:38;;;;;;;58.42;24.58;;;2.50;99.90;;;;;;2082332;28;20025;-73
2022/01/27 03:41:42;;;;;;;57.47;24.27;;;2.50;99.90;;;;;;2081433;28;20139;-74
2022/01/27 03:42:50;;;;;;;52.78;23.63;;;2.60;99.90;;;;;;2080882;28;20064;-71
2022/01/27 03:43:51;;;;;;;55.05;23.63;;;2.50;99.90;;;;;;2080622;28;20111;-72
2022/01/27 03:44:51;;;;;;;57.08;24.10;;;2.50;99.90;;;;;;2080487;28;20037;-72
2022/01/27 03:45:52;;;;;;;52.55;22.90;;;2.50;99.90;;;;;;2079659;28;20069;-72
2022/01/27 03:46:55;;;;;;;58.97;25.05;;;2.50;99.90;;;;;;2072249;28;20057;-72
2022/01/27 03:47:56;;;;;;;54.10;24.60;;;2.60;99.90;;;;;;2080851;28;20119;-72
2022/01/27 03:48:57;;;;;;;59.90;25.17;;;2.50;99.90;;;;;;2081120;28;20088;-72
2022/01/27 03:49:58;;;;;;;57.90;24.83;;;2.50;99.90;;;;;;2081277;28;20100;-73
2022/01/27 03:50:58;;;;;;;58.25;25.25;;;2.50;99.90;;;;;;2081175;28;20026;-72
2022/01/27 03:52:01;;;;;;;55.75;23.60;;;2.50;99.90;;;;;;2080343;28;20033;-72
2022/01/27 03:53:02;;;;;;;56.83;24.48;;;2.50;99.90;;;;;;2072067;28;20092;-71
2022/01/27 03:54:02;;;;;;;58.38;24.70;;;2.50;99.90;;;;;;2071959;28;20038;-71
2022/01/27 03:55:03;;;;;;;57.72;24.45;;;2.50;99.90;;;;;;2081164;28;20034;-71
2022/01/27 03:56:05;;;;;;;58.90;24.75;;;2.60;99.90;;;;;;2080920;28;20029;-71
2022/01/27 03:57:05;;;;;;;57.75;23.95;;;2.50;99.90;;;;;;2081152;28;20041;-71
2022/01/27 03:58:06;;;;;;;55.05;24.00;;;2.50;99.90;;;;;;2081808;28;20128;-71
2022/01/27 03:59:07;;;;;;;57.78;24.65;;;2.50;99.90;;;;;;2082564;28;20032;-72
2022/01/27 04:00:09;;;;;;;57.08;23.90;;;2.50;99.90;;;;;;2082810;28;20397;-72
2022/01/27 04:01:13;;;;;;;57.35;23.27;;;2.50;99.90;;;;;;2082851;28;20025;-71
2022/01/27 04:02:14;;;;;;;61.00;24.05;;;2.50;99.90;;;;;;2081934;28;20052;-72
2022/01/27 04:03:17;;;;;;;57.22;23.73;;;2.50;99.90;;;;;;2082046;28;20040;-72
2022/01/27 04:04:17;;;;;;;56.60;24.10;;;2.50;99.90;;;;;;2082157;28;20037;-71
2022/01/27 04:05:19;;;;;;;59.75;24.58;;;2.50;99.90;;;;;;2082122;28;20021;-72
2022/01/27 04:06:22;;;;;;;58.30;24.55;;;2.50;99.90;;;;;;2073355;28;20029;-74
2022/01/27 04:07:23;;;;;;;58.20;23.60;;;2.40;99.90;;;;;;2074163;28;20034;-72
2022/01/27 04:08:25;;;;;;;58.47;24.60;;;2.40;99.90;;;;;;2081963;28;20025;-71
2022/01/27 04:09:27;;;;;;;55.08;23.25;;;2.40;99.90;;;;;;2082640;28;20049;-72
2022/01/27 04:10:27;;;;;;;55.40;23.08;;;2.40;99.90;;;;;;2082880;28;20029;-72
2022/01/27 04:11:28;;;;;;;52.28;22.13;;;2.40;99.90;;;;;;2083376;28;20034;-73
2022/01/27 04:12:29;;;;;;;55.95;24.05;;;2.50;99.90;;;;;;2083709;28;20033;-72
2022/01/27 04:13:29;;;;;;;57.60;23.52;;;2.50;99.90;;;;;;2081814;28;20029;-72
2022/01/27 04:14:30;;;;;;;55.65;22.95;;;2.50;99.90;;;;;;2082046;28;20075;-74
2022/01/27 04:15:31;;;;;;;56.72;24.33;;;2.50;99.90;;;;;;2081988;28;20107;-74
2022/01/27 04:16:31;;;;;;;52.28;22.65;;;2.50;99.90;;;;;;2073819;28;20038;-71
2022/01/27 04:17:32;;;;;;;53.20;22.02;;;2.50;99.90;;;;;;2073744;28;20112;-73
2022/01/27 04:18:33;;;;;;;55.60;22.08;;;2.50;99.90;;;;;;2082666;28;20025;-71
2022/01/27 04:19:33;;;;;;;53.80;22.13;;;2.50;99.90;;;;;;2082486;28;20774;-71
2022/01/27 04:20:34;;;;;;;51.78;22.58;;;2.50;99.90;;;;;;2082680;28;20021;-71
2022/01/27 04:21:34;;;;;;;52.03;22.38;;;2.50;99.90;;;;;;2081825;28;20033;-72
2022/01/27 04:22:35;;;;;;;54.90;22.58;;;2.50;99.90;;;;;;2081945;28;20014;-72
2022/01/27 04:23:35;;;;;;;50.55;21.83;;;2.50;99.90;;;;;;2082542;28;20029;-72
2022/01/27 04:24:36;;;;;;;54.13;22.67;;;2.50;99.90;;;;;;2082960;28;20028;-74
2022/01/27 04:25:38;;;;;;;53.67;22.92;;;2.40;99.90;;;;;;2083781;28;20028;-72
2022/01/27 04:26:46;;;;;;;55.95;23.10;;;2.40;99.90;;;;;;2083365;28;20059;-74
2022/01/27 04:27:53;;;;;;;55.13;22.70;;;2.40;99.90;;;;;;2082979;28;20025;-74
2022/01/27 04:28:54;;;;;;;56.75;22.75;;;2.40;99.90;;;;;;2083151;28;20027;-72
2022/01/27 04:29:55;;;;;;;56.28;23.42;;;2.40;99.90;;;;;;2082143;28;20030;-72
2022/01/27 04:30:57;;;;;;;58.15;23.13;;;2.40;99.90;;;;;;2082786;28;20052;-72
2022/01/27 04:32:01;;;;;;;53.08;22.55;;;2.40;99.90;;;;;;2083342;28;20033;-72
2022/01/27 04:33:03;;;;;;;59.75;23.60;;;2.40;99.90;;;;;;2082820;28;20044;-71
2022/01/27 04:34:04;;;;;;;61.30;24.02;;;2.40;99.90;;;;;;2082433;28;20026;-72
2022/01/27 04:35:07;;;;;;;54.83;23.20;;;2.40;99.90;;;;;;2073679;28;20053;-72
2022/01/27 04:36:26;;;;;;;57.83;23.23;;;2.40;99.90;;;;;;2073375;28;20075;-71
2022/01/27 04:37:29;;;;;;;61.30;22.92;;;2.40;99.90;;;;;;2081806;28;20040;-72
2022/01/27 04:38:39;;;;;;;58.38;23.88;;;2.40;99.90;;;;;;2082050;28;20098;-72
2022/01/27 04:39:55;;;;;;;54.38;22.50;;;2.40;99.90;;;;;;2082224;28;20087;-71
2022/01/27 04:41:13;;;;;;;60.15;24.17;;;2.30;99.90;;;;;;2082549;28;20028;-71
2022/01/27 04:42:25;;;;;;;57.97;23.17;;;2.40;99.90;;;;;;2081596;28;20048;-71
2022/01/27 04:44:34;;;;;;;58.63;23.75;;;2.40;99.90;;;;;;2081619;28;20036;-71
2022/01/27 04:45:45;;;;;;;55.88;23.13;;;2.40;99.90;;;;;;2082230;28;20396;-71
2022/01/27 04:46:57;;;;;;;56.65;23.80;;;2.40;99.90;;;;;;2081711;28;20053;-72
2022/01/27 04:48:07;;;;;;;57.50;23.17;;;2.40;99.90;;;;;;2081780;28;20432;-73
2022/01/27 04:49:09;;;;;;;;;;;2.40;99.90;;;;;;2081521;28;20097;-73
2022/01/27 04:50:10;;;;;;;63.95;23.88;;;2.40;99.90;;;;;;2081044;28;20024;-73
2022/01/27 04:51:14;;;;;;;57.58;23.67;;;2.40;99.90;;;;;;2080894;28;20033;-73
2022/01/27 04:52:15;;;;;;;61.30;23.95;;;2.40;99.90;;;;;;2081387;28;20129;-73
2022/01/27 04:53:27;;;;;;;58.78;23.83;;;2.40;99.90;;;;;;2081699;28;20033;-73
2022/01/27 04:55:49;;;;;;;58.72;23.55;;;2.40;99.90;;;;;;2071805;28;20151;-73
2022/01/27 04:56:49;;;;;;;59.97;24.50;;;2.40;99.90;;;;;;2075348;28;20138;-73
2022/01/27 04:58:04;;;;;;;61.30;23.95;;;2.40;99.90;;;;;;2080776;28;20037;-73
2022/01/27 04:59:13;;;;;;;58.30;23.90;;;2.40;99.90;;;;;;2080844;28;20037;-73
2022/01/27 05:00:16;;;;;;;59.17;23.30;;;2.40;99.90;;;;;;2073660;28;20036;-73
2022/01/27 05:01:19;;;;;;;60.05;23.83;;;2.40;99.90;;;;;;2080996;28;20489;-73
2022/01/27 05:03:13;;;;;;;58.17;24.02;;;2.50;99.90;;;;;;2081370;28;20693;-73
2022/01/27 05:03:46;;;;;;;;;;;2.50;99.90;;;;;;2077217;28;20073;-73
2022/01/27 05:04:50;;;;;;;55.60;22.58;;;2.40;99.90;;;;;;2081159;28;20012;-73
2022/01/27 05:05:52;;;;;;;54.35;21.50;;;2.40;99.90;;;;;;2081305;28;20026;-73
2022/01/27 05:06:53;;;;;;;57.72;23.33;;;2.50;99.90;;;;;;2081548;28;20056;-73
2022/01/27 05:08:00;;;;;;;54.25;22.55;;;2.50;99.90;;;;;;2081387;28;20026;-73
2022/01/27 05:09:00;;;;;;;59.25;23.42;;;2.50;99.90;;;;;;2080429;28;20030;-73
2022/01/27 05:10:02;;;;;;;53.03;22.42;;;2.50;99.90;;;;;;2072823;28;20479;-73
2022/01/27 05:12:15;;;;;;;59.20;24.38;;;2.50;99.90;;;;;;2081333;28;20171;-73
2022/01/27 05:13:18;;;;;;;54.38;22.35;;;2.50;99.90;;;;;;2081628;28;20045;-73
2022/01/27 05:14:23;;;;;;;53.95;22.85;;;2.50;99.90;;;;;;2081097;28;20451;-73
2022/01/27 05:15:24;;;;;;;50.10;22.10;;;2.50;99.90;;;;;;2064620;28;20038;-73
2022/01/27 05:16:27;;;;;;;50.83;21.98;;;2.50;99.90;;;;;;2072956;28;20497;-72
2022/01/27 05:17:27;;;;;;;52.47;22.25;;;2.50;99.90;;;;;;2089013;28;20028;-72
2022/01/27 05:18:28;;;;;;;51.85;22.23;;;2.50;99.90;;;;;;2081821;28;20039;-72
2022/01/27 05:19:29;;;;;;;49.50;21.70;;;2.40;99.90;;;;;;2080432;28;20064;-73
2022/01/27 05:20:29;;;;;;;55.75;22.52;;;2.50;99.90;;;;;;2072581;28;20022;-73
2022/01/27 05:21:33;;;;;;;53.85;23.27;;;2.40;99.90;;;;;;2080387;28;20048;-73
2022/01/27 05:22:34;;;;;;;52.22;21.98;;;2.40;99.90;;;;;;2080799;28;20429;-73
2022/01/27 05:23:34;;;;;;;51.42;22.40;;;2.40;99.90;;;;;;2081418;28;20028;-73
2022/01/27 05:24:35;;;;;;;49.00;20.73;;;2.50;99.90;;;;;;2081291;28;20025;-73
2022/01/27 05:25:35;;;;;;;47.17;21.48;;;2.50;99.90;;;;;;2080148;28;20485;-73
2022/01/27 05:26:38;;;;;;;50.20;20.75;;;2.50;99.90;;;;;;2080642;28;20106;-73
2022/01/27 05:27:38;;;;;;;43.90;20.25;;;2.50;99.90;;;;;;2080666;28;20037;-73
2022/01/27 05:28:39;;;;;;;45.78;21.02;;;2.50;99.90;;;;;;2080736;28;20021;-73
2022/01/27 05:29:40;;;;;;;45.97;21.50;;;2.50;99.90;;;;;;2080478;28;20515;-73
2022/01/27 05:30:40;;;;;;;46.67;21.33;;;2.50;99.90;;;;;;2080634;28;20068;-73
2022/01/27 05:31:43;;;;;;;49.67;22.08;;;2.50;99.90;;;;;;2072409;28;20803;-73
2022/01/27 05:32:43;;;;;;;45.70;20.83;;;2.60;99.90;;;;;;2072744;28;20056;-73
2022/01/27 05:33:44;;;;;;;44.90;20.73;;;2.60;99.90;;;;;;2080725;28;20075;-71
2022/01/27 05:34:45;;;;;;;45.95;21.05;;;2.60;99.90;;;;;;2080625;28;20036;-73
2022/01/27 05:35:46;;;;;;;43.85;20.48;;;2.60;99.90;;;;;;2071959;28;20034;-71
2022/01/27 05:36:46;;;;;;;44.35;20.67;;;2.60;99.90;;;;;;2080539;28;20030;-72
2022/01/27 05:37:47;;;;;;;46.60;20.55;;;2.60;99.90;;;;;;2081081;28;20036;-72
2022/01/27 05:38:47;;;;;;;45.70;20.10;;;2.60;99.90;;;;;;2081419;28;20390;-72
2022/01/27 05:39:48;;;;;;;39.70;19.73;;;2.60;99.90;;;;;;2081332;28;20155;-72
2022/01/27 05:40:49;;;;;;;45.00;19.98;;;2.60;99.90;;;;;;2081173;28;20485;-72
2022/01/27 05:41:49;;;;;;;46.42;20.30;;;2.60;99.90;;;;;;2081297;28;20091;-72
2022/01/27 05:42:50;;;;;;;41.97;19.73;;;2.70;99.90;;;;;;2081285;28;20033;-71
2022/01/27 05:43:50;;;;;;;42.22;19.45;;;2.60;99.90;;;;;;2080303;28;20075;-72
2022/01/27 05:44:51;;;;;;;44.10;19.52;;;2.60;99.90;;;;;;2080527;28;20026;-73
2022/01/27 05:45:52;;;;;;;41.60;19.17;;;2.60;99.90;;;;;;2080602;28;20033;-71
2022/01/27 05:46:52;;;;;;;41.83;19.52;;;2.60;99.90;;;;;;2081144;28;20026;-72
2022/01/27 05:47:53;;;;;;;43.20;19.20;;;2.70;99.90;;;;;;2080491;28;20033;-73
2022/01/27 05:48:53;;;;;;;40.88;18.63;;;2.70;99.90;;;;;;2080351;28;20100;-71
2022/01/27 05:49:54;;;;;;;40.05;19.38;;;2.70;99.90;;;;;;2080969;28;20479;-71
2022/01/27 05:50:54;;;;;;;39.67;19.08;;;2.70;99.90;;;;;;2080663;28;20041;-72
2022/01/27 05:51:55;;;;;;;39.67;18.63;;;2.70;99.90;;;;;;2080168;28;20041;-71
2022/01/27 05:52:56;;;;;;;41.25;18.85;;;2.70;99.90;;;;;;2080472;28;20588;-73
2022/01/27 05:53:56;;;;;;;41.05;19.65;;;2.70;99.90;;;;;;2080436;28;20397;-73
2022/01/27 05:54:57;;;;;;;34.78;18.60;;;2.70;99.90;;;;;;2080408;28;20057;-72
2022/01/27 05:55:59;;;;;;;39.08;19.15;;;2.70;99.90;;;;;;2079940;28;20038;-73
2022/01/27 05:57:00;;;;;;;36.13;18.38;;;2.70;99.90;;;;;;2080563;28;20037;-72
2022/01/27 05:58:04;;;;;;;35.28;18.13;;;2.70;99.90;;;;;;2080555;28;20075;-72
2022/01/27 05:59:05;;;;;;;37.53;18.77;;;2.70;99.90;;;;;;2081153;28;20108;-71
2022/01/27 06:00:06;;;;;;;39.67;19.48;;;2.70;99.90;;;;;;2081178;28;20033;-71
2022/01/27 06:01:13;;;;;;;35.13;18.58;;;2.70;99.90;;;;;;2081280;28;20052;-71
2022/01/27 06:02:13;;;;;;;35.97;18.02;;;2.70;99.90;;;;;;2080295;28;20040;-73
2022/01/27 06:03:14;;;;;;;36.60;17.95;;;2.70;99.90;;;;;;2072591;28;20037;-72
2022/01/27 06:04:15;;;;;;;35.83;18.95;;;2.70;99.90;;;;;;2080488;28;20052;-72
2022/01/27 06:05:15;;;;;;;36.92;18.95;;;2.70;99.90;;;;;;2080980;28;20176;-72
2022/01/27 06:06:16;;;;;;;32.85;17.63;;;2.70;99.90;;;;;;2080659;28;20389;-73
2022/01/27 06:07:16;;;;;;;35.25;18.88;;;2.70;99.90;;;;;;2081206;28;20428;-72